CDU9 weather

CLOSED Dunnville Airport
Dunnville, Ontario, Canada

Public forecast

Using degrees Celsius for public forecast. Weather courtesy of forecast.io.

METAR (pilot weather report)

Closest report is John C. Munro Hamilton International Airport, 23.4 nm (43.4 km) NW. Retrieved 2019/05/22 16:00 UTC (7 minutes ago):

CYHM 221600Z 05007KT 15SM BKN075 OVC110 12/06 A3022 RMK ACC5AC3 PRESRR SLP238

TAF (pilot weather forecast)

Closest forecast is John C. Munro Hamilton International Airport, 23.4 nm (43.4 km) NW. Retrieved 2019/05/22 12:39 UTC (3 hours ago):

TAF CYHM 221138Z 2212/2312 08008KT P6SM FEW050 BKN170 FM221500 08012G22KT P6SM BKN090 OVC170 FM221900 09010G20KT P6SM OVC080 TEMPO 2219/2222 P6SM -SHRA FM222200 10012KT 6SM -SHRA BR OVC012 TEMPO 2301/2303 P6SM NSW BKN020 FM230300 13006KT P6SM SCT020 FM230600 13006KT 1SM BR OVC004 RMK NXT FCST BY 221800Z